Time;durP1;ratioP1;P1;durP2;ratioP2;P2;SDS_P1;SDS_P2;PMS_P1;PMS_P2;Temp;Humidity;BMP_temperature;BMP_pressure;BME280_temperature;BME280_humidity;BME280_pressure;Samples;Min_cycle;Max_cycle;Signal;HPM_P1;HPM_P2
2022/01/30 00:02:14;;;;;;;37.47;6.82;;;6.10;99.90;;;;;;5055193;28;20497;-65
2022/01/30 00:04:40;;;;;;;31.07;5.73;;;6.20;99.90;;;;;;5041259;28;20046;-64
2022/01/30 00:07:06;;;;;;;35.47;5.93;;;6.20;99.90;;;;;;5041052;28;20060;-64
2022/01/30 00:09:31;;;;;;;37.75;7.75;;;6.20;99.90;;;;;;5041422;28;20041;-64
2022/01/30 00:12:01;;;;;;;36.33;6.47;;;6.10;99.90;;;;;;5042319;28;20084;-64
2022/01/30 00:14:29;;;;;;;28.05;6.38;;;6.00;99.90;;;;;;5024994;28;20311;-64
2022/01/30 00:17:01;;;;;;;22.80;5.10;;;5.90;99.90;;;;;;5042628;28;20055;-64
2022/01/30 00:19:35;;;;;;;19.35;4.50;;;5.80;99.90;;;;;;5043746;28;20045;-64
2022/01/30 00:22:35;;;;;;;17.92;3.95;;;5.70;99.90;;;;;;5045118;28;20054;-65
2022/01/30 00:25:06;;;;;;;16.20;3.22;;;5.70;99.90;;;;;;5046870;28;20183;-64
2022/01/30 00:27:47;;;;;;;12.43;3.70;;;5.70;99.90;;;;;;5028458;28;20076;-64
2022/01/30 00:30:15;;;;;;;16.90;2.85;;;5.60;99.90;;;;;;5046789;28;20117;-64
2022/01/30 00:32:41;;;;;;;19.65;4.07;;;5.50;99.90;;;;;;5046318;28;20045;-65
2022/01/30 00:35:11;;;;;;;20.20;5.15;;;5.60;99.90;;;;;;5046888;28;20054;-64
2022/01/30 00:37:40;;;;;;;27.00;4.95;;;5.60;99.90;;;;;;5041594;28;20046;-65
2022/01/30 00:40:07;;;;;;;18.95;3.90;;;5.60;99.90;;;;;;5056562;28;20051;-64
2022/01/30 00:42:33;;;;;;;16.67;4.25;;;5.60;99.90;;;;;;5045127;28;20048;-65
2022/01/30 00:44:59;;;;;;;18.35;3.38;;;5.60;99.90;;;;;;5039671;28;20140;-65
2022/01/30 00:47:24;;;;;;;21.67;4.07;;;5.60;99.90;;;;;;5046421;28;20046;-64
2022/01/30 00:49:50;;;;;;;23.60;4.60;;;5.60;99.90;;;;;;5046371;28;20268;-64
2022/01/30 00:52:17;;;;;;;21.17;5.33;;;5.60;99.90;;;;;;5046050;28;20042;-64
2022/01/30 00:54:43;;;;;;;;;;;5.60;99.90;;;;;;5029188;28;20795;-64
2022/01/30 00:57:09;;;;;;;20.38;4.03;;;5.50;99.90;;;;;;5044354;28;19921;-64
2022/01/30 00:59:35;;;;;;;30.25;5.35;;;5.50;99.90;;;;;;5044825;28;20054;-64
2022/01/30 01:02:01;;;;;;;32.13;5.65;;;5.50;99.90;;;;;;5045883;28;20084;-65
2022/01/30 01:04:26;;;;;;;35.25;5.95;;;5.40;99.90;;;;;;5044585;28;20542;-64
2022/01/30 01:06:52;;;;;;;30.43;7.00;;;5.40;99.90;;;;;;5044427;28;20045;-64
2022/01/30 01:09:22;;;;;;;34.97;6.17;;;5.40;99.90;;;;;;5044533;28;20042;-65
2022/01/30 01:25:17;;;;;;;46.65;7.90;;;5.60;99.90;;;;;;5045651;28;20129;-64
2022/01/30 01:27:43;;;;;;;;;;;5.70;99.90;;;;;;5044201;28;20045;-64
2022/01/30 01:30:09;;;;;;;42.25;7.93;;;5.70;99.90;;;;;;5043796;28;19937;-64
2022/01/30 01:32:35;;;;;;;31.67;6.95;;;5.70;99.90;;;;;;5043955;28;20053;-65
2022/01/30 01:35:01;;;;;;;34.05;7.28;;;5.80;99.90;;;;;;5044031;28;20041;-64
2022/01/30 01:37:27;;;;;;;38.40;7.43;;;5.80;99.90;;;;;;5044891;28;20067;-64
2022/01/30 01:39:52;;;;;;;23.10;5.83;;;5.70;99.90;;;;;;5070580;28;20279;-64
2022/01/30 01:42:18;;;;;;;30.93;7.10;;;5.60;99.90;;;;;;5049695;28;20056;-64
2022/01/30 01:44:51;;;;;;;38.00;7.97;;;5.60;99.90;;;;;;5045226;28;20073;-65
2022/01/30 01:47:20;;;;;;;36.30;6.63;;;5.60;99.90;;;;;;5043883;28;20142;-64
2022/01/30 01:49:47;;;;;;;38.90;6.55;;;5.50;99.90;;;;;;5043839;28;20145;-64
2022/01/30 01:52:19;;;;;;;34.20;5.75;;;5.50;99.90;;;;;;5043709;28;20054;-64
2022/01/30 01:54:47;;;;;;;35.65;7.00;;;5.50;99.90;;;;;;5060289;28;20118;-64
2022/01/30 01:57:13;;;;;;;31.13;8.05;;;5.40;99.90;;;;;;5043379;28;20088;-64
2022/01/30 01:59:40;;;;;;;36.95;7.20;;;5.50;99.90;;;;;;5027154;28;20041;-64
2022/01/30 02:02:05;;;;;;;33.42;6.30;;;5.50;99.90;;;;;;5043365;28;20120;-64
2022/01/30 02:04:31;;;;;;;40.22;6.25;;;5.50;99.90;;;;;;5043509;28;20131;-65
2022/01/30 02:09:42;;;;;;;39.08;7.63;;;5.50;99.90;;;;;;5043344;28;20138;-64
2022/01/30 02:12:16;;;;;;;38.00;6.32;;;5.60;99.90;;;;;;5044604;28;20041;-64
2022/01/30 02:14:52;;;;;;;41.08;7.15;;;5.60;99.90;;;;;;5044637;28;20140;-64
2022/01/30 02:25:43;;;;;;;24.70;6.15;;;5.70;99.90;;;;;;5042975;28;20049;-64
2022/01/30 02:28:13;;;;;;;30.00;6.25;;;5.60;99.90;;;;;;5044177;28;20081;-64
2022/01/30 02:30:45;;;;;;;28.23;5.72;;;5.70;99.90;;;;;;5044547;28;20133;-64
2022/01/30 02:33:11;;;;;;;28.60;5.55;;;5.70;99.90;;;;;;5043887;28;20101;-64
2022/01/30 02:35:37;;;;;;;32.23;7.13;;;5.60;99.90;;;;;;5042884;28;20073;-64
2022/01/30 02:38:02;;;;;;;29.58;6.82;;;5.60;99.90;;;;;;5043568;28;20311;-65
2022/01/30 02:40:36;;;;;;;33.63;7.30;;;5.50;99.90;;;;;;5042844;28;20079;-64
2022/01/30 02:43:02;;;;;;;36.42;6.85;;;5.50;99.90;;;;;;5042662;28;20691;-64
2022/01/30 02:45:32;;;;;;;44.92;9.00;;;5.50;99.90;;;;;;5042788;28;20049;-64
2022/01/30 02:48:12;;;;;;;40.22;7.55;;;5.50;99.90;;;;;;5042458;28;20060;-64
2022/01/30 02:50:51;;;;;;;52.65;9.43;;;5.50;99.90;;;;;;5026276;28;20076;-64
2022/01/30 02:53:17;;;;;;;46.47;7.72;;;5.50;99.90;;;;;;5043532;28;20072;-64
2022/01/30 02:55:43;;;;;;;53.22;7.95;;;5.50;99.90;;;;;;5042674;28;20049;-64
2022/01/30 02:58:08;;;;;;;44.17;9.33;;;5.50;99.90;;;;;;5043825;28;20095;-64
2022/01/30 03:00:34;;;;;;;50.10;8.90;;;5.50;99.90;;;;;;5042258;28;20288;-64
2022/01/30 03:03:00;;;;;;;51.10;9.40;;;5.60;99.90;;;;;;5042500;28;20052;-64
2022/01/30 03:05:26;;;;;;;45.45;8.15;;;5.70;99.90;;;;;;5042052;28;20135;-64
2022/01/30 03:07:55;;;;;;;41.17;9.47;;;5.70;99.90;;;;;;5041903;28;20049;-64
2022/01/30 03:10:21;;;;;;;50.40;9.25;;;5.70;99.90;;;;;;5022651;28;20065;-64
2022/01/30 03:12:46;;;;;;;50.88;8.88;;;5.80;99.90;;;;;;5040024;28;20125;-64
2022/01/30 03:15:12;;;;;;;49.57;10.23;;;5.80;99.90;;;;;;5025600;28;20049;-64
2022/01/30 03:17:40;;;;;;;45.23;7.53;;;5.80;99.90;;;;;;5042038;28;20316;-65
2022/01/30 03:20:06;;;;;;;38.03;8.82;;;5.80;99.90;;;;;;5042026;28;20057;-64
2022/01/30 03:22:32;;;;;;;40.90;9.02;;;5.80;99.90;;;;;;5043669;28;20076;-64
2022/01/30 03:24:58;;;;;;;42.88;8.90;;;5.90;99.90;;;;;;5022027;28;20478;-64
2022/01/30 03:27:24;;;;;;;45.33;7.87;;;5.90;99.90;;;;;;5035227;28;20088;-64
2022/01/30 03:29:51;;;;;;;50.25;10.00;;;5.90;99.90;;;;;;5043657;28;20304;-64
2022/01/30 03:32:17;;;;;;;46.60;7.95;;;5.90;99.90;;;;;;5042909;28;20049;-64
2022/01/30 03:34:44;;;;;;;54.75;9.88;;;5.90;99.90;;;;;;5041797;28;20045;-64
2022/01/30 03:37:10;;;;;;;;;;;5.90;99.90;;;;;;5041506;28;20135;-64
2022/01/30 03:39:35;;;;;;;49.40;8.80;;;5.80;99.90;;;;;;5049232;28;19929;-64
2022/01/30 03:42:01;;;;;;;49.13;9.03;;;5.90;99.90;;;;;;5049015;28;20113;-64
2022/01/30 03:44:27;;;;;;;52.17;9.68;;;5.90;99.90;;;;;;5041487;28;20299;-63
2022/01/30 03:46:52;;;;;;;46.23;8.03;;;5.80;99.90;;;;;;5038148;28;20089;-63
2022/01/30 03:49:18;;;;;;;39.07;9.63;;;5.80;99.90;;;;;;5053349;28;20054;-65
2022/01/30 03:51:44;;;;;;;49.43;8.43;;;5.70;99.90;;;;;;5041127;28;20288;-64
2022/01/30 03:54:09;;;;;;;69.73;12.07;;;5.70;99.90;;;;;;5024938;28;20149;-64
2022/01/30 03:56:35;;;;;;;49.35;8.80;;;5.50;99.90;;;;;;5042869;28;20037;-64
2022/01/30 03:59:01;;;;;;;55.17;10.27;;;5.50;99.90;;;;;;5024928;28;20049;-65
2022/01/30 04:01:26;;;;;;;43.50;9.00;;;5.50;99.90;;;;;;5042704;28;20068;-64
2022/01/30 04:03:52;;;;;;;56.20;9.63;;;5.50;99.90;;;;;;5041500;28;20099;-64
2022/01/30 04:06:18;;;;;;;57.30;9.90;;;5.50;99.90;;;;;;5040659;28;20053;-64
2022/01/30 04:08:44;;;;;;;54.35;8.70;;;5.60;99.90;;;;;;5032576;28;20081;-64
2022/01/30 04:11:11;;;;;;;45.25;8.13;;;5.60;99.90;;;;;;5042642;28;20041;-64
2022/01/30 04:13:36;;;;;;;54.22;8.77;;;5.70;99.90;;;;;;5042848;28;20045;-64
2022/01/30 04:16:02;;;;;;;43.65;9.10;;;5.70;99.90;;;;;;5042643;28;20114;-64
2022/01/30 04:18:28;;;;;;;49.08;9.75;;;5.70;99.90;;;;;;5042661;28;20045;-64
2022/01/30 04:20:54;;;;;;;53.42;9.82;;;5.70;99.90;;;;;;5041350;28;20057;-64
2022/01/30 04:23:20;;;;;;;40.75;8.48;;;5.70;99.90;;;;;;5041097;28;20064;-64
2022/01/30 04:25:45;;;;;;;52.77;9.90;;;5.70;99.90;;;;;;5042420;28;20049;-64
2022/01/30 04:28:11;;;;;;;50.47;8.63;;;5.70;99.90;;;;;;5042608;28;20045;-64
2022/01/30 04:30:38;;;;;;;60.83;11.35;;;5.80;99.90;;;;;;5057780;28;20371;-64
2022/01/30 04:33:04;;;;;;;44.72;10.65;;;5.70;99.90;;;;;;5041035;28;20111;-64
2022/01/30 04:35:30;;;;;;;57.65;10.20;;;5.80;99.90;;;;;;5041110;28;20053;-64
2022/01/30 04:38:09;;;;;;;65.13;10.70;;;5.80;99.90;;;;;;5041963;28;20049;-64
2022/01/30 04:56:57;;;;;;;51.92;10.05;;;6.00;99.90;;;;;;5040222;28;20057;-64
2022/01/30 05:02:38;;;;;;;55.78;9.40;;;6.10;99.90;;;;;;5040837;28;20442;-64
2022/01/30 05:05:38;;;;;;;46.25;8.63;;;6.10;99.90;;;;;;5040514;28;20057;-64
2022/01/30 05:08:01;;;;;;;48.22;8.90;;;6.10;99.90;;;;;;5040398;28;20113;-64
2022/01/30 05:10:27;;;;;;;48.45;10.20;;;6.10;99.90;;;;;;5044622;28;20049;-65
2022/01/30 05:12:56;;;;;;;56.50;10.43;;;6.10;99.90;;;;;;5045699;28;20150;-64
2022/01/30 05:15:22;;;;;;;56.40;11.13;;;6.10;99.90;;;;;;5045666;28;20104;-64
2022/01/30 05:17:48;;;;;;;54.55;10.63;;;6.10;99.90;;;;;;5045548;28;20060;-64
2022/01/30 05:20:14;;;;;;;55.78;11.68;;;6.20;99.90;;;;;;5044321;28;20489;-64
2022/01/30 05:22:40;;;;;;;45.33;8.88;;;6.10;99.90;;;;;;5044113;28;20045;-64
2022/01/30 05:25:07;;;;;;;60.85;11.55;;;6.10;99.90;;;;;;5043990;28;20208;-64
2022/01/30 05:27:33;;;;;;;;;;;6.10;99.90;;;;;;5027759;28;20137;-64
2022/01/30 05:29:59;;;;;;;49.65;9.57;;;6.10;99.90;;;;;;5044307;28;19984;-64
2022/01/30 05:32:24;;;;;;;39.85;8.63;;;6.10;99.90;;;;;;5043881;28;20046;-64
2022/01/30 05:34:51;;;;;;;39.10;8.63;;;6.10;99.90;;;;;;5060883;28;20140;-64
2022/01/30 05:37:19;;;;;;;53.13;9.30;;;6.10;99.90;;;;;;5045049;28;20064;-64
2022/01/30 05:39:45;;;;;;;47.00;9.82;;;6.10;99.90;;;;;;5043922;28;20053;-64
2022/01/30 05:42:13;;;;;;;57.47;10.88;;;6.00;99.90;;;;;;5043824;28;20053;-64
2022/01/30 05:45:00;;;;;;;48.65;10.60;;;5.90;99.90;;;;;;5043827;28;20079;-64
2022/01/30 05:47:32;;;;;;;52.10;10.20;;;5.80;99.90;;;;;;5043472;28;20056;-63
2022/01/30 05:49:58;;;;;;;48.88;9.75;;;5.60;99.90;;;;;;5043867;28;20050;-64
2022/01/30 05:52:24;;;;;;;59.65;8.95;;;5.50;99.90;;;;;;5023606;28;20071;-64
2022/01/30 05:54:50;;;;;;;40.88;7.78;;;5.40;99.90;;;;;;5024030;28;20038;-64
2022/01/30 05:57:16;;;;;;;50.83;10.30;;;5.30;99.90;;;;;;5039031;28;20076;-64
2022/01/30 05:59:41;;;;;;;50.17;9.00;;;5.20;99.90;;;;;;5043901;28;20042;-64
2022/01/30 06:02:07;;;;;;;58.13;8.52;;;5.10;99.90;;;;;;5042968;28;20071;-63
2022/01/30 06:04:33;;;;;;;56.42;9.18;;;5.00;99.90;;;;;;5043692;28;20101;-64
2022/01/30 06:07:00;;;;;;;60.13;9.88;;;5.00;99.90;;;;;;5042161;28;20124;-64
2022/01/30 06:09:26;;;;;;;58.55;9.93;;;5.00;99.90;;;;;;5043658;28;20534;-64
2022/01/30 06:11:52;;;;;;;52.20;9.25;;;5.00;99.90;;;;;;5043220;28;20109;-64
2022/01/30 06:14:19;;;;;;;63.78;10.85;;;5.00;99.90;;;;;;5044820;28;20069;-64
2022/01/30 06:16:45;;;;;;;47.72;9.20;;;5.10;99.90;;;;;;5041967;28;20083;-64
2022/01/30 06:19:11;;;;;;;59.10;9.82;;;5.10;99.90;;;;;;5039816;28;20137;-64
2022/01/30 06:21:36;;;;;;;54.97;11.00;;;5.10;99.90;;;;;;5029086;28;20120;-64
2022/01/30 06:24:02;;;;;;;55.80;11.57;;;5.20;99.90;;;;;;5044464;28;20045;-64
2022/01/30 06:26:28;;;;;;;58.77;9.63;;;5.30;99.90;;;;;;5042609;28;20041;-64
2022/01/30 06:28:54;;;;;;;47.35;9.98;;;5.30;99.90;;;;;;5042900;28;20332;-64
2022/01/30 06:31:20;;;;;;;64.32;9.98;;;5.40;99.90;;;;;;5044508;28;20099;-64
2022/01/30 06:33:46;;;;;;;56.63;9.68;;;5.50;99.90;;;;;;5042904;28;20049;-64
2022/01/30 06:36:12;;;;;;;53.72;10.75;;;5.50;99.90;;;;;;5042666;28;20082;-63
2022/01/30 06:38:38;;;;;;;58.47;9.90;;;5.60;99.90;;;;;;5059168;28;20049;-64
2022/01/30 06:41:04;;;;;;;54.47;10.65;;;5.60;99.90;;;;;;5056978;28;20041;-64
2022/01/30 06:43:30;;;;;;;60.60;9.30;;;5.60;99.90;;;;;;5026513;28;20045;-65
2022/01/30 06:45:56;;;;;;;52.33;9.50;;;5.60;99.90;;;;;;5044116;28;20049;-64
2022/01/30 06:48:22;;;;;;;42.93;8.27;;;5.60;99.90;;;;;;5042410;28;20311;-64
2022/01/30 06:50:48;;;;;;;50.90;9.93;;;5.60;99.90;;;;;;5043676;28;20137;-64
2022/01/30 06:53:14;;;;;;;47.38;9.02;;;5.70;99.90;;;;;;5042557;28;20175;-64
2022/01/30 06:55:42;;;;;;;59.20;11.38;;;5.70;99.90;;;;;;5042059;28;20144;-64
2022/01/30 06:58:13;;;;;;;49.80;8.30;;;5.70;99.90;;;;;;5042251;28;20053;-64
2022/01/30 07:00:39;;;;;;;43.17;9.73;;;5.70;99.90;;;;;;5043615;28;20128;-64
2022/01/30 07:03:05;;;;;;;53.13;9.73;;;5.80;99.90;;;;;;5042957;28;20101;-65
2022/01/30 07:05:30;;;;;;;48.88;8.93;;;5.80;99.90;;;;;;5030472;28;20132;-64
2022/01/30 07:07:56;;;;;;;48.93;9.03;;;5.80;99.90;;;;;;5043325;28;20056;-64
2022/01/30 07:10:22;;;;;;;48.92;10.82;;;5.70;99.90;;;;;;5041855;28;20049;-64
2022/01/30 07:12:48;;;;;;;57.80;9.38;;;5.70;99.90;;;;;;5041858;28;20041;-64
2022/01/30 07:15:14;;;;;;;53.28;9.20;;;5.70;99.90;;;;;;5042761;28;20105;-64
2022/01/30 07:17:41;;;;;;;40.05;9.43;;;5.70;99.90;;;;;;5043010;28;20056;-64
2022/01/30 07:20:07;;;;;;;;;;;5.70;99.90;;;;;;5041828;28;20049;-64
2022/01/30 07:22:33;;;;;;;40.38;8.52;;;5.60;99.90;;;;;;5042957;28;20017;-64
2022/01/30 07:24:59;;;;;;;39.28;8.98;;;5.70;99.90;;;;;;5042598;28;20046;-64
2022/01/30 07:27:25;;;;;;;43.78;8.80;;;5.70;99.90;;;;;;5040632;28;20140;-64
2022/01/30 07:29:51;;;;;;;47.67;8.32;;;5.70;99.90;;;;;;5041120;28;20144;-64
2022/01/30 07:32:17;;;;;;;52.88;8.98;;;5.70;99.90;;;;;;5041130;28;20052;-64
2022/01/30 07:34:44;;;;;;;41.70;8.03;;;5.70;99.90;;;;;;5043058;28;20145;-64
2022/01/30 07:37:11;;;;;;;41.38;9.73;;;5.80;99.90;;;;;;5043260;28;20114;-64
2022/01/30 07:39:39;;;;;;;40.58;8.82;;;5.80;99.90;;;;;;5048936;28;20143;-64
2022/01/30 07:42:06;;;;;;;38.85;7.22;;;5.80;99.90;;;;;;5048335;28;20057;-64
2022/01/30 07:44:32;;;;;;;36.05;8.15;;;5.80;99.90;;;;;;5041609;28;20049;-64
2022/01/30 07:46:57;;;;;;;38.58;6.95;;;5.80;99.90;;;;;;5041547;28;20077;-63
2022/01/30 07:49:23;;;;;;;46.50;9.27;;;5.80;99.90;;;;;;5041914;28;20094;-64
2022/01/30 07:51:49;;;;;;;51.03;8.67;;;5.80;99.90;;;;;;5042862;28;20060;-63
2022/01/30 07:54:14;;;;;;;35.50;8.63;;;5.80;99.90;;;;;;5042966;28;20383;-64
2022/01/30 07:56:40;;;;;;;36.92;7.60;;;5.80;99.90;;;;;;5042339;28;20044;-63
2022/01/30 07:59:06;;;;;;;34.47;8.38;;;5.90;99.90;;;;;;5042817;28;20048;-64
2022/01/30 08:01:32;;;;;;;40.65;7.78;;;5.80;99.90;;;;;;5041336;28;20093;-63
2022/01/30 08:03:58;;;;;;;42.23;7.93;;;5.90;99.90;;;;;;5043181;28;20063;-62
2022/01/30 08:06:24;;;;;;;55.35;8.95;;;5.80;99.90;;;;;;5041278;28;20101;-64
2022/01/30 08:08:50;;;;;;;46.20;8.73;;;5.90;99.90;;;;;;5042618;28;20045;-62
2022/01/30 08:11:15;;;;;;;40.00;9.17;;;5.80;99.90;;;;;;5042402;28;20042;-63
2022/01/30 08:13:41;;;;;;;48.67;10.70;;;5.90;99.90;;;;;;5042847;28;20053;-63
2022/01/30 08:16:07;;;;;;;38.93;8.63;;;5.90;99.90;;;;;;5041459;28;20095;-64
2022/01/30 08:18:36;;;;;;;48.53;9.23;;;5.90;99.90;;;;;;5042773;28;20105;-63
2022/01/30 08:21:03;;;;;;;55.10;11.32;;;5.90;99.90;;;;;;5031956;28;20681;-63
2022/01/30 08:23:29;;;;;;;55.28;10.63;;;5.90;99.90;;;;;;5043277;28;20048;-63
2022/01/30 08:25:55;;;;;;;48.65;9.60;;;5.90;99.90;;;;;;5042429;28;20053;-64
2022/01/30 08:28:21;;;;;;;50.23;9.27;;;5.90;99.90;;;;;;5021372;28;20100;-64
2022/01/30 08:30:46;;;;;;;86.47;11.87;;;5.90;99.90;;;;;;5031614;28;20057;-64
2022/01/30 08:33:16;;;;;;;47.07;9.77;;;5.90;99.90;;;;;;5041221;28;20465;-65
2022/01/30 08:35:41;;;;;;;38.45;8.25;;;5.90;99.90;;;;;;5041093;28;20049;-64
2022/01/30 08:38:07;;;;;;;43.55;9.00;;;5.90;99.90;;;;;;5040804;28;20056;-63
2022/01/30 08:40:33;;;;;;;44.42;8.18;;;5.90;99.90;;;;;;5043257;28;20053;-63
2022/01/30 08:42:59;;;;;;;38.50;9.13;;;5.90;99.90;;;;;;5045316;28;20071;-63
2022/01/30 08:45:24;;;;;;;46.33;7.77;;;6.00;99.90;;;;;;5046215;28;20073;-64
2022/01/30 08:47:51;;;;;;;33.40;8.57;;;6.00;99.90;;;;;;5045403;28;20125;-64
2022/01/30 08:50:18;;;;;;;41.63;8.07;;;6.10;99.90;;;;;;5045624;28;20390;-64
2022/01/30 09:26:24;;;;;;;40.17;9.25;;;6.20;99.90;;;;;;5543698;22;20065;-66
2022/01/30 09:28:50;;;;;;;49.22;8.30;;;6.20;99.90;;;;;;5024019;28;20046;-68
2022/01/30 09:31:16;;;;;;;44.25;8.50;;;6.20;99.90;;;;;;5002218;28;20077;-71
2022/01/30 09:33:42;;;;;;;35.95;8.30;;;6.20;99.90;;;;;;5008469;28;20049;-70
2022/01/30 09:36:08;;;;;;;36.97;8.13;;;6.20;99.90;;;;;;5002328;28;20092;-73
2022/01/30 09:38:34;;;;;;;38.30;8.88;;;6.20;99.90;;;;;;5025933;28;20060;-76
2022/01/30 09:41:01;;;;;;;45.88;8.25;;;6.20;99.90;;;;;;5024019;28;20046;-80
2022/01/30 09:43:29;;;;;;;;;;;6.30;99.90;;;;;;5025766;28;20058;-66
2022/01/30 09:48:36;;;;;;;41.28;7.57;;;6.40;99.90;;;;;;5494286;23;20057;-61
2022/01/30 09:51:09;;;;;;;45.03;8.23;;;6.40;99.90;;;;;;5045510;28;20388;-61
2022/01/30 09:53:35;;;;;;;47.72;7.57;;;6.40;99.90;;;;;;5012331;28;20050;-61
2022/01/30 09:56:03;;;;;;;47.67;9.05;;;6.40;99.90;;;;;;5046422;28;20064;-61
2022/01/30 09:58:30;;;;;;;50.45;10.50;;;6.40;99.90;;;;;;5016964;28;20054;-61
2022/01/30 10:00:57;;;;;;;38.55;8.25;;;6.50;99.90;;;;;;5025431;28;20094;-61
2022/01/30 10:03:26;;;;;;;39.70;9.27;;;6.50;99.90;;;;;;5017227;28;20111;-61
2022/01/30 10:06:06;;;;;;;49.40;9.93;;;6.50;99.90;;;;;;5018613;28;20048;-62
2022/01/30 10:08:32;;;;;;;48.85;9.00;;;6.50;99.90;;;;;;5046223;28;20056;-61
2022/01/30 10:11:04;;;;;;;53.42;9.93;;;6.40;99.90;;;;;;5028418;28;20057;-62
2022/01/30 10:13:31;;;;;;;46.50;8.35;;;6.40;99.90;;;;;;5028332;28;20094;-62
2022/01/30 10:16:03;;;;;;;35.40;8.10;;;6.40;99.90;;;;;;5037153;28;20431;-60
2022/01/30 10:18:33;;;;;;;40.30;8.23;;;6.40;99.90;;;;;;5008549;28;20049;-62
2022/01/30 10:21:00;;;;;;;39.83;9.32;;;6.50;99.90;;;;;;5026300;28;20108;-62
2022/01/30 10:23:33;;;;;;;44.20;8.13;;;6.50;99.90;;;;;;5014290;28;20080;-62
2022/01/30 10:26:01;;;;;;;46.45;9.27;;;6.60;99.90;;;;;;5046145;28;20058;-62
2022/01/30 10:28:31;;;;;;;43.22;7.53;;;6.70;99.90;;;;;;5011805;28;20558;-61
2022/01/30 10:31:08;;;;;;;43.45;8.73;;;6.80;99.90;;;;;;5011667;28;20053;-61
2022/01/30 10:33:50;;;;;;;39.33;8.27;;;6.80;99.90;;;;;;5011599;28;20045;-61
2022/01/30 10:36:25;;;;;;;42.30;9.10;;;6.80;99.90;;;;;;5027911;28;20045;-61
2022/01/30 10:39:10;;;;;;;36.35;7.10;;;6.70;99.90;;;;;;5028182;28;20057;-62
2022/01/30 10:41:41;;;;;;;43.72;7.75;;;6.70;99.90;;;;;;5027837;28;20109;-62
2022/01/30 10:44:09;;;;;;;51.13;8.63;;;6.80;99.90;;;;;;5045665;28;20041;-62
2022/01/30 10:46:44;;;;;;;37.92;7.10;;;6.70;99.90;;;;;;5027857;28;20060;-61
2022/01/30 10:49:18;;;;;;;46.85;8.75;;;6.70;99.90;;;;;;5045431;28;20125;-62
2022/01/30 10:51:58;;;;;;;55.97;10.10;;;6.70;99.90;;;;;;5011576;28;20109;-61
2022/01/30 10:54:32;;;;;;;43.35;9.02;;;6.60;99.90;;;;;;5025586;28;20057;-61
2022/01/30 10:57:03;;;;;;;50.90;9.05;;;6.60;99.90;;;;;;5008943;28;20075;-61
2022/01/30 10:59:29;;;;;;;40.30;7.55;;;6.60;99.90;;;;;;5045379;28;20116;-61
2022/01/30 11:02:09;;;;;;;40.35;9.77;;;6.70;99.90;;;;;;5022284;28;20100;-61
2022/01/30 11:04:34;;;;;;;46.13;8.65;;;6.60;99.90;;;;;;5032195;28;20092;-62
2022/01/30 11:07:04;;;;;;;45.13;9.10;;;6.70;99.90;;;;;;5027587;28;20112;-63
2022/01/30 11:09:45;;;;;;;42.72;7.90;;;6.70;99.90;;;;;;5011765;28;20049;-63
2022/01/30 11:12:14;;;;;;;38.90;7.72;;;6.70;99.90;;;;;;5007878;28;20042;-61
2022/01/30 11:17:16;;;;;;;46.55;10.63;;;6.80;99.90;;;;;;5045073;28;20094;-62
2022/01/30 11:19:43;;;;;;;43.92;7.82;;;6.80;99.90;;;;;;5026922;28;20506;-62
2022/01/30 11:22:12;;;;;;;53.80;8.95;;;6.80;99.90;;;;;;5044906;28;20093;-60
2022/01/30 11:25:07;;;;;;;58.97;9.15;;;6.80;99.90;;;;;;5044927;28;20122;-62
2022/01/30 11:27:34;;;;;;;45.97;8.27;;;6.80;99.90;;;;;;5021815;28;20117;-62
2022/01/30 11:30:01;;;;;;;46.95;8.38;;;6.90;99.90;;;;;;5043444;28;20117;-62
2022/01/30 11:32:27;;;;;;;44.70;8.85;;;6.80;99.90;;;;;;5026709;28;20068;-62
2022/01/30 11:34:55;;;;;;;34.13;7.80;;;6.80;99.90;;;;;;5027179;28;20519;-62
2022/01/30 11:37:31;;;;;;;40.63;8.27;;;6.80;99.90;;;;;;5027030;28;20053;-62
2022/01/30 11:40:00;;;;;;;42.30;8.25;;;6.80;99.90;;;;;;5026800;28;20060;-60
2022/01/30 11:42:40;;;;;;;52.13;8.88;;;6.80;99.90;;;;;;5044742;28;20385;-63
2022/01/30 11:45:14;;;;;;;47.45;8.90;;;6.80;99.90;;;;;;5044773;28;20061;-61
2022/01/30 11:47:52;;;;;;;41.00;8.65;;;6.90;99.90;;;;;;5019240;28;20056;-61
2022/01/30 11:50:20;;;;;;;48.20;9.05;;;6.90;99.90;;;;;;5006915;28;20093;-61
2022/01/30 11:52:56;;;;;;;38.15;7.43;;;6.90;99.90;;;;;;5024420;28;20053;-61
2022/01/30 11:55:38;;;;;;;31.58;7.18;;;7.00;99.90;;;;;;5006867;28;20109;-61
2022/01/30 11:58:04;;;;;;;50.00;8.70;;;7.00;99.90;;;;;;5034548;28;20048;-61
2022/01/30 12:00:38;;;;;;;41.72;7.65;;;7.10;99.90;;;;;;5026568;28;20041;-61
2022/01/30 12:03:32;;;;;;;40.55;7.82;;;7.10;99.90;;;;;;5026362;28;20033;-61
2022/01/30 12:06:19;;;;;;;26.58;6.28;;;7.00;99.90;;;;;;5019879;28;20088;-61
2022/01/30 12:08:50;;;;;;;50.22;9.43;;;7.10;99.90;;;;;;5024722;28;20431;-61
2022/01/30 12:11:34;;;;;;;44.70;8.07;;;7.20;99.90;;;;;;5042901;28;20053;-61
2022/01/30 12:14:05;;;;;;;38.53;7.30;;;7.20;99.90;;;;;;5044246;28;20049;-61
2022/01/30 12:16:56;;;;;;;45.70;8.75;;;7.30;99.90;;;;;;5043644;28;20038;-62
2022/01/30 12:19:31;;;;;;;44.00;8.65;;;7.30;99.90;;;;;;5026469;28;20431;-61
2022/01/30 12:21:58;;;;;;;42.33;8.23;;;7.20;99.90;;;;;;5044118;28;20041;-62
2022/01/30 12:24:24;;;;;;;;;;;7.10;99.90;;;;;;5044509;28;20042;-61
2022/01/30 12:26:55;;;;;;;46.63;9.13;;;6.90;99.90;;;;;;5044149;28;19925;-61
2022/01/30 12:29:50;;;;;;;38.83;8.82;;;6.90;99.90;;;;;;5044089;28;20046;-61
2022/01/30 12:32:22;;;;;;;50.00;9.27;;;6.70;99.90;;;;;;5026240;28;20044;-61
2022/01/30 12:35:00;;;;;;;40.25;7.97;;;6.70;99.90;;;;;;5026179;28;20050;-61
2022/01/30 12:37:28;;;;;;;51.13;9.45;;;6.60;99.90;;;;;;5006528;28;20490;-62
2022/01/30 12:39:55;;;;;;;40.05;8.02;;;6.60;99.90;;;;;;5024327;28;20052;-61
2022/01/30 12:42:23;;;;;;;40.53;8.38;;;6.60;99.90;;;;;;5024200;28;20056;-61
2022/01/30 12:44:49;;;;;;;36.70;7.13;;;6.70;99.90;;;;;;5023092;28;20048;-61
2022/01/30 12:47:16;;;;;;;36.03;7.38;;;6.80;99.90;;;;;;5007181;28;20046;-61
2022/01/30 12:49:53;;;;;;;37.13;7.60;;;7.00;99.90;;;;;;5006316;28;20046;-61
2022/01/30 12:55:02;;;;;;;28.63;7.88;;;7.20;99.90;;;;;;5024151;28;20042;-61
2022/01/30 12:57:30;;;;;;;33.95;7.00;;;7.20;99.90;;;;;;5006300;28;20049;-62
2022/01/30 12:59:58;;;;;;;36.55;6.88;;;7.20;99.90;;;;;;5006302;28;20077;-61
2022/01/30 13:02:25;;;;;;;33.60;6.95;;;7.30;99.90;;;;;;5022697;28;20121;-61
2022/01/30 13:05:01;;;;;;;41.22;9.07;;;7.30;99.90;;;;;;5006027;28;20053;-61
2022/01/30 13:07:27;;;;;;;38.40;8.93;;;7.30;99.90;;;;;;5024048;28;20082;-61
2022/01/30 13:10:11;;;;;;;45.50;8.97;;;7.30;99.90;;;;;;5013414;28;20045;-62
2022/01/30 13:12:38;;;;;;;35.75;7.70;;;7.30;99.90;;;;;;5025574;28;20052;-62
2022/01/30 13:15:11;;;;;;;38.35;6.68;;;7.30;99.90;;;;;;5043835;28;20049;-61
2022/01/30 13:17:37;;;;;;;31.33;7.38;;;7.40;99.90;;;;;;5025643;28;20077;-61
2022/01/30 13:20:05;;;;;;;36.20;7.82;;;7.40;99.90;;;;;;5025843;28;20037;-61
2022/01/30 13:22:34;;;;;;;45.25;7.10;;;7.40;99.90;;;;;;5025872;28;20408;-61
2022/01/30 13:25:03;;;;;;;40.17;7.80;;;7.30;99.90;;;;;;5025778;28;20060;-61
2022/01/30 13:27:29;;;;;;;32.58;5.85;;;7.30;99.90;;;;;;5045871;28;20140;-61
2022/01/30 13:29:56;;;;;;;31.08;7.82;;;7.10;99.90;;;;;;5029485;28;20057;-61
2022/01/30 13:32:24;;;;;;;39.60;7.05;;;7.00;99.90;;;;;;5029045;28;20463;-61
2022/01/30 13:34:50;;;;;;;36.63;6.65;;;6.90;99.90;;;;;;5029230;28;20048;-61
2022/01/30 13:37:20;;;;;;;31.10;7.00;;;6.90;99.90;;;;;;5046874;28;20117;-62
2022/01/30 13:42:50;;;;;;;42.08;8.63;;;7.00;99.90;;;;;;5046914;28;20056;-61
2022/01/30 13:48:01;;;;;;;33.70;8.15;;;7.10;99.90;;;;;;5038446;28;20053;-61
2022/01/30 13:50:32;;;;;;;32.35;5.78;;;7.00;99.90;;;;;;5026698;28;20060;-61
2022/01/30 13:53:25;;;;;;;33.75;7.05;;;7.00;99.90;;;;;;5043472;28;20049;-61
2022/01/30 13:56:07;;;;;;;31.27;6.32;;;6.80;99.90;;;;;;5044164;28;20087;-61
2022/01/30 13:58:43;;;;;;;36.22;7.15;;;6.80;99.90;;;;;;5028113;28;20064;-60
2022/01/30 14:01:14;;;;;;;34.63;6.80;;;6.80;99.90;;;;;;5028662;28;20092;-60
2022/01/30 14:03:42;;;;;;;34.28;6.63;;;6.70;99.90;;;;;;5028271;28;20060;-63
2022/01/30 14:06:22;;;;;;;42.35;6.97;;;6.70;99.90;;;;;;5046306;28;20077;-63
2022/01/30 14:08:52;;;;;;;36.33;7.10;;;6.70;99.90;;;;;;5028024;28;20053;-64
